sensor_id;sensor_type;location;lat;lon;timestamp;P1;durP1;ratioP1;P2;durP2;ratioP2
85726;SDS011;76171;45.484;-73.496;2024-02-14T00:01:54;4.88;;;1.80;;
85726;SDS011;76171;45.484;-73.496;2024-02-14T00:06:48;5.68;;;2.17;;
85726;SDS011;76171;45.484;-73.496;2024-02-14T00:09:14;3.83;;;1.98;;
85726;SDS011;76171;45.484;-73.496;2024-02-14T00:11:42;7.32;;;1.50;;
85726;SDS011;76171;45.484;-73.496;2024-02-14T00:14:09;5.60;;;1.40;;
85726;SDS011;76171;45.484;-73.496;2024-02-14T00:16:35;7.30;;;2.05;;
85726;SDS011;76171;45.484;-73.496;2024-02-14T00:19:04;4.38;;;1.52;;
85726;SDS011;76171;45.484;-73.496;2024-02-14T00:21:30;4.00;;;1.40;;
85726;SDS011;76171;45.484;-73.496;2024-02-14T00:23:57;5.45;;;1.42;;
85726;SDS011;76171;45.484;-73.496;2024-02-14T00:26:23;4.68;;;1.75;;
85726;SDS011;76171;45.484;-73.496;2024-02-14T00:28:52;7.00;;;2.10;;
85726;SDS011;76171;45.484;-73.496;2024-02-14T00:31:18;3.47;;;1.95;;
85726;SDS011;76171;45.484;-73.496;2024-02-14T00:33:44;4.03;;;1.40;;
85726;SDS011;76171;45.484;-73.496;2024-02-14T00:36:11;3.30;;;1.10;;
85726;SDS011;76171;45.484;-73.496;2024-02-14T00:38:40;2.38;;;1.27;;
85726;SDS011;76171;45.484;-73.496;2024-02-14T00:41:06;3.30;;;1.30;;
85726;SDS011;76171;45.484;-73.496;2024-02-14T00:43:36;2.72;;;1.30;;
85726;SDS011;76171;45.484;-73.496;2024-02-14T00:46:02;3.17;;;1.40;;
85726;SDS011;76171;45.484;-73.496;2024-02-14T00:48:28;2.08;;;1.23;;
85726;SDS011;76171;45.484;-73.496;2024-02-14T00:50:54;2.08;;;1.02;;
85726;SDS011;76171;45.484;-73.496;2024-02-14T00:53:20;5.30;;;1.92;;
85726;SDS011;76171;45.484;-73.496;2024-02-14T00:55:46;3.40;;;1.88;;
85726;SDS011;76171;45.484;-73.496;2024-02-14T00:58:12;5.53;;;1.40;;
85726;SDS011;76171;45.484;-73.496;2024-02-14T01:00:38;4.07;;;1.70;;
85726;SDS011;76171;45.484;-73.496;2024-02-14T01:03:04;6.53;;;1.65;;
85726;SDS011;76171;45.484;-73.496;2024-02-14T01:05:31;3.67;;;1.25;;
85726;SDS011;76171;45.484;-73.496;2024-02-14T01:07:57;3.95;;;1.08;;
85726;SDS011;76171;45.484;-73.496;2024-02-14T01:12:51;2.65;;;1.13;;
85726;SDS011;76171;45.484;-73.496;2024-02-14T01:15:17;4.38;;;1.02;;
85726;SDS011;76171;45.484;-73.496;2024-02-14T01:17:47;3.10;;;1.00;;
85726;SDS011;76171;45.484;-73.496;2024-02-14T01:20:13;3.38;;;1.02;;
85726;SDS011;76171;45.484;-73.496;2024-02-14T01:22:41;3.03;;;1.20;;
85726;SDS011;76171;45.484;-73.496;2024-02-14T01:27:36;2.25;;;0.95;;
85726;SDS011;76171;45.484;-73.496;2024-02-14T01:30:02;2.13;;;1.05;;
85726;SDS011;76171;45.484;-73.496;2024-02-14T01:32:29;3.58;;;1.42;;
85726;SDS011;76171;45.484;-73.496;2024-02-14T01:34:55;3.75;;;1.10;;
85726;SDS011;76171;45.484;-73.496;2024-02-14T01:37:24;1.50;;;0.90;;
85726;SDS011;76171;45.484;-73.496;2024-02-14T01:42:16;1.85;;;0.90;;
85726;SDS011;76171;45.484;-73.496;2024-02-14T01:44:41;6.63;;;1.10;;
85726;SDS011;76171;45.484;-73.496;2024-02-14T01:47:09;5.80;;;1.42;;
85726;SDS011;76171;45.484;-73.496;2024-02-14T01:49:35;6.22;;;1.65;;
85726;SDS011;76171;45.484;-73.496;2024-02-14T01:52:09;1.55;;;0.82;;
85726;SDS011;76171;45.484;-73.496;2024-02-14T01:54:35;3.22;;;1.02;;
85726;SDS011;76171;45.484;-73.496;2024-02-14T01:57:01;4.25;;;1.40;;
85726;SDS011;76171;45.484;-73.496;2024-02-14T01:59:28;3.92;;;1.02;;
85726;SDS011;76171;45.484;-73.496;2024-02-14T02:01:55;2.95;;;1.13;;
85726;SDS011;76171;45.484;-73.496;2024-02-14T02:04:23;3.58;;;1.40;;
85726;SDS011;76171;45.484;-73.496;2024-02-14T02:06:50;5.95;;;2.05;;
85726;SDS011;76171;45.484;-73.496;2024-02-14T02:09:16;6.53;;;2.00;;
85726;SDS011;76171;45.484;-73.496;2024-02-14T02:11:45;4.05;;;1.33;;
85726;SDS011;76171;45.484;-73.496;2024-02-14T02:14:15;4.68;;;1.80;;
85726;SDS011;76171;45.484;-73.496;2024-02-14T02:16:44;5.10;;;1.90;;
85726;SDS011;76171;45.484;-73.496;2024-02-14T02:19:11;4.32;;;2.05;;
85726;SDS011;76171;45.484;-73.496;2024-02-14T02:21:37;6.68;;;2.50;;
85726;SDS011;76171;45.484;-73.496;2024-02-14T02:24:04;4.45;;;2.20;;
85726;SDS011;76171;45.484;-73.496;2024-02-14T02:26:30;5.68;;;2.47;;
85726;SDS011;76171;45.484;-73.496;2024-02-14T02:28:56;4.95;;;2.33;;
85726;SDS011;76171;45.484;-73.496;2024-02-14T02:31:22;6.25;;;1.67;;
85726;SDS011;76171;45.484;-73.496;2024-02-14T02:33:48;6.07;;;2.22;;
85726;SDS011;76171;45.484;-73.496;2024-02-14T02:36:15;5.85;;;2.42;;
85726;SDS011;76171;45.484;-73.496;2024-02-14T02:38:41;5.82;;;2.00;;
85726;SDS011;76171;45.484;-73.496;2024-02-14T02:41:07;6.38;;;2.33;;
85726;SDS011;76171;45.484;-73.496;2024-02-14T02:43:34;2.88;;;1.20;;
85726;SDS011;76171;45.484;-73.496;2024-02-14T02:46:00;4.80;;;1.65;;
85726;SDS011;76171;45.484;-73.496;2024-02-14T02:48:26;9.32;;;1.58;;
85726;SDS011;76171;45.484;-73.496;2024-02-14T02:50:53;4.43;;;1.73;;
85726;SDS011;76171;45.484;-73.496;2024-02-14T02:53:19;5.53;;;1.42;;
85726;SDS011;76171;45.484;-73.496;2024-02-14T02:55:48;3.25;;;0.70;;
85726;SDS011;76171;45.484;-73.496;2024-02-14T02:58:16;2.38;;;0.85;;
85726;SDS011;76171;45.484;-73.496;2024-02-14T03:00:42;2.33;;;1.00;;
85726;SDS011;76171;45.484;-73.496;2024-02-14T03:03:14;2.00;;;1.05;;
85726;SDS011;76171;45.484;-73.496;2024-02-14T03:05:41;1.58;;;0.80;;
85726;SDS011;76171;45.484;-73.496;2024-02-14T03:08:10;4.05;;;0.80;;
85726;SDS011;76171;45.484;-73.496;2024-02-14T03:10:41;6.60;;;2.03;;
85726;SDS011;76171;45.484;-73.496;2024-02-14T03:13:07;2.17;;;0.98;;
85726;SDS011;76171;45.484;-73.496;2024-02-14T03:15:42;1.55;;;0.85;;
85726;SDS011;76171;45.484;-73.496;2024-02-14T03:18:14;1.77;;;0.90;;
85726;SDS011;76171;45.484;-73.496;2024-02-14T03:23:11;1.30;;;0.70;;
85726;SDS011;76171;45.484;-73.496;2024-02-14T03:25:52;2.85;;;1.13;;
85726;SDS011;76171;45.484;-73.496;2024-02-14T03:28:53;1.33;;;0.80;;
85726;SDS011;76171;45.484;-73.496;2024-02-14T03:31:24;3.15;;;0.73;;
85726;SDS011;76171;45.484;-73.496;2024-02-14T03:33:56;0.90;;;0.57;;
85726;SDS011;76171;45.484;-73.496;2024-02-14T03:37:31;1.35;;;0.50;;
85726;SDS011;76171;45.484;-73.496;2024-02-14T03:40:17;0.75;;;0.55;;
85726;SDS011;76171;45.484;-73.496;2024-02-14T03:46:44;2.42;;;0.63;;
85726;SDS011;76171;45.484;-73.496;2024-02-14T03:49:06;0.30;;;0.30;;
85726;SDS011;76171;45.484;-73.496;2024-02-14T03:51:35;1.45;;;0.70;;
85726;SDS011;76171;45.484;-73.496;2024-02-14T03:54:36;0.55;;;0.50;;
85726;SDS011;76171;45.484;-73.496;2024-02-14T03:57:11;0.60;;;0.32;;
85726;SDS011;76171;45.484;-73.496;2024-02-14T04:00:26;0.57;;;0.50;;
85726;SDS011;76171;45.484;-73.496;2024-02-14T04:02:36;0.22;;;0.22;;
85726;SDS011;76171;45.484;-73.496;2024-02-14T04:05:08;1.20;;;0.90;;
85726;SDS011;76171;45.484;-73.496;2024-02-14T04:07:40;0.82;;;0.60;;
85726;SDS011;76171;45.484;-73.496;2024-02-14T04:10:09;0.73;;;0.60;;
85726;SDS011;76171;45.484;-73.496;2024-02-14T04:12:35;1.80;;;1.13;;
85726;SDS011;76171;45.484;-73.496;2024-02-14T04:15:04;0.43;;;0.40;;
85726;SDS011;76171;45.484;-73.496;2024-02-14T04:17:31;0.57;;;0.50;;
85726;SDS011;76171;45.484;-73.496;2024-02-14T04:19:58;1.20;;;0.57;;
85726;SDS011;76171;45.484;-73.496;2024-02-14T04:22:29;1.05;;;0.55;;
85726;SDS011;76171;45.484;-73.496;2024-02-14T04:24:56;0.45;;;0.45;;
85726;SDS011;76171;45.484;-73.496;2024-02-14T04:27:28;0.70;;;0.43;;
85726;SDS011;76171;45.484;-73.496;2024-02-14T04:29:57;1.10;;;0.60;;
85726;SDS011;76171;45.484;-73.496;2024-02-14T04:32:23;0.77;;;0.52;;
85726;SDS011;76171;45.484;-73.496;2024-02-14T04:34:50;0.63;;;0.45;;
85726;SDS011;76171;45.484;-73.496;2024-02-14T04:37:18;2.53;;;0.95;;
85726;SDS011;76171;45.484;-73.496;2024-02-14T04:39:45;0.85;;;0.40;;
85726;SDS011;76171;45.484;-73.496;2024-02-14T04:42:14;1.27;;;0.70;;
85726;SDS011;76171;45.484;-73.496;2024-02-14T04:44:43;1.08;;;0.57;;
85726;SDS011;76171;45.484;-73.496;2024-02-14T04:47:09;1.02;;;0.60;;
85726;SDS011;76171;45.484;-73.496;2024-02-14T04:49:35;1.98;;;0.90;;
85726;SDS011;76171;45.484;-73.496;2024-02-14T04:52:02;2.83;;;0.90;;
85726;SDS011;76171;45.484;-73.496;2024-02-14T04:54:29;1.80;;;0.45;;
85726;SDS011;76171;45.484;-73.496;2024-02-14T04:56:58;0.47;;;0.47;;
85726;SDS011;76171;45.484;-73.496;2024-02-14T04:59:24;0.88;;;0.63;;
85726;SDS011;76171;45.484;-73.496;2024-02-14T05:01:53;0.70;;;0.47;;
85726;SDS011;76171;45.484;-73.496;2024-02-14T05:04:23;1.63;;;0.52;;
85726;SDS011;76171;45.484;-73.496;2024-02-14T05:06:49;0.20;;;0.20;;
85726;SDS011;76171;45.484;-73.496;2024-02-14T05:09:16;0.40;;;0.40;;
85726;SDS011;76171;45.484;-73.496;2024-02-14T05:11:42;0.30;;;0.30;;
85726;SDS011;76171;45.484;-73.496;2024-02-14T05:14:08;1.02;;;0.45;;
85726;SDS011;76171;45.484;-73.496;2024-02-14T05:16:34;1.10;;;0.60;;
85726;SDS011;76171;45.484;-73.496;2024-02-14T05:19:00;0.73;;;0.55;;
85726;SDS011;76171;45.484;-73.496;2024-02-14T05:21:27;0.22;;;0.22;;
85726;SDS011;76171;45.484;-73.496;2024-02-14T05:23:56;0.28;;;0.28;;
85726;SDS011;76171;45.484;-73.496;2024-02-14T05:26:22;0.52;;;0.40;;
85726;SDS011;76171;45.484;-73.496;2024-02-14T05:28:48;1.05;;;0.47;;
85726;SDS011;76171;45.484;-73.496;2024-02-14T05:31:14;0.63;;;0.50;;
85726;SDS011;76171;45.484;-73.496;2024-02-14T05:33:43;0.85;;;0.50;;
85726;SDS011;76171;45.484;-73.496;2024-02-14T05:36:11;0.30;;;0.30;;
85726;SDS011;76171;45.484;-73.496;2024-02-14T05:38:38;0.20;;;0.20;;
85726;SDS011;76171;45.484;-73.496;2024-02-14T05:41:04;0.35;;;0.30;;
85726;SDS011;76171;45.484;-73.496;2024-02-14T05:43:33;0.40;;;0.30;;
85726;SDS011;76171;45.484;-73.496;2024-02-14T05:45:59;0.20;;;0.20;;
85726;SDS011;76171;45.484;-73.496;2024-02-14T05:48:26;0.30;;;0.30;;
85726;SDS011;76171;45.484;-73.496;2024-02-14T05:50:52;0.20;;;0.20;;
85726;SDS011;76171;45.484;-73.496;2024-02-14T05:53:18;0.30;;;0.30;;
85726;SDS011;76171;45.484;-73.496;2024-02-14T05:55:45;0.28;;;0.28;;
85726;SDS011;76171;45.484;-73.496;2024-02-14T05:58:14;0.52;;;0.52;;
85726;SDS011;76171;45.484;-73.496;2024-02-14T06:00:41;0.35;;;0.30;;
85726;SDS011;76171;45.484;-73.496;2024-02-14T06:03:07;1.10;;;0.63;;
85726;SDS011;76171;45.484;-73.496;2024-02-14T06:05:34;0.35;;;0.30;;
85726;SDS011;76171;45.484;-73.496;2024-02-14T06:08:00;0.70;;;0.50;;
85726;SDS011;76171;45.484;-73.496;2024-02-14T06:10:28;0.32;;;0.30;;
85726;SDS011;76171;45.484;-73.496;2024-02-14T06:13:00;0.50;;;0.40;;
85726;SDS011;76171;45.484;-73.496;2024-02-14T06:15:29;0.43;;;0.38;;
85726;SDS011;76171;45.484;-73.496;2024-02-14T06:17:56;0.40;;;0.40;;
85726;SDS011;76171;45.484;-73.496;2024-02-14T06:20:22;3.40;;;0.30;;
85726;SDS011;76171;45.484;-73.496;2024-02-14T06:22:52;0.52;;;0.40;;
85726;SDS011;76171;45.484;-73.496;2024-02-14T06:25:18;0.28;;;0.28;;
85726;SDS011;76171;45.484;-73.496;2024-02-14T06:27:44;0.30;;;0.30;;
85726;SDS011;76171;45.484;-73.496;2024-02-14T06:30:10;0.40;;;0.40;;
85726;SDS011;76171;45.484;-73.496;2024-02-14T06:32:37;0.38;;;0.38;;
85726;SDS011;76171;45.484;-73.496;2024-02-14T06:35:14;0.38;;;0.30;;
85726;SDS011;76171;45.484;-73.496;2024-02-14T06:37:57;0.20;;;0.20;;
85726;SDS011;76171;45.484;-73.496;2024-02-14T06:40:23;0.20;;;0.20;;
85726;SDS011;76171;45.484;-73.496;2024-02-14T06:42:54;0.20;;;0.20;;
85726;SDS011;76171;45.484;-73.496;2024-02-14T06:45:20;1.00;;;0.30;;
85726;SDS011;76171;45.484;-73.496;2024-02-14T06:47:46;0.50;;;0.40;;
85726;SDS011;76171;45.484;-73.496;2024-02-14T06:50:21;1.38;;;0.50;;
85726;SDS011;76171;45.484;-73.496;2024-02-14T06:56:12;0.30;;;0.30;;
85726;SDS011;76171;45.484;-73.496;2024-02-14T06:58:41;0.30;;;0.30;;
85726;SDS011;76171;45.484;-73.496;2024-02-14T07:01:07;0.30;;;0.30;;
85726;SDS011;76171;45.484;-73.496;2024-02-14T07:03:34;0.28;;;0.28;;
85726;SDS011;76171;45.484;-73.496;2024-02-14T07:06:05;0.30;;;0.30;;
85726;SDS011;76171;45.484;-73.496;2024-02-14T07:08:33;0.32;;;0.32;;
85726;SDS011;76171;45.484;-73.496;2024-02-14T07:11:02;0.30;;;0.30;;
85726;SDS011;76171;45.484;-73.496;2024-02-14T07:13:31;0.40;;;0.40;;
85726;SDS011;76171;45.484;-73.496;2024-02-14T07:16:00;0.30;;;0.30;;
85726;SDS011;76171;45.484;-73.496;2024-02-14T07:18:26;0.50;;;0.30;;
85726;SDS011;76171;45.484;-73.496;2024-02-14T07:20:56;0.30;;;0.30;;
85726;SDS011;76171;45.484;-73.496;2024-02-14T07:23:26;0.38;;;0.38;;
85726;SDS011;76171;45.484;-73.496;2024-02-14T07:25:53;0.50;;;0.50;;
85726;SDS011;76171;45.484;-73.496;2024-02-14T07:28:19;0.15;;;0.15;;
85726;SDS011;76171;45.484;-73.496;2024-02-14T07:30:50;1.75;;;1.13;;
85726;SDS011;76171;45.484;-73.496;2024-02-14T07:33:20;0.20;;;0.20;;
85726;SDS011;76171;45.484;-73.496;2024-02-14T07:35:46;0.40;;;0.40;;
85726;SDS011;76171;45.484;-73.496;2024-02-14T07:38:15;0.50;;;0.40;;
85726;SDS011;76171;45.484;-73.496;2024-02-14T07:40:41;0.30;;;0.30;;
85726;SDS011;76171;45.484;-73.496;2024-02-14T07:43:08;0.30;;;0.30;;
85726;SDS011;76171;45.484;-73.496;2024-02-14T07:45:34;0.40;;;0.40;;
85726;SDS011;76171;45.484;-73.496;2024-02-14T07:48:04;0.30;;;0.30;;
85726;SDS011;76171;45.484;-73.496;2024-02-14T07:50:31;0.40;;;0.40;;
85726;SDS011;76171;45.484;-73.496;2024-02-14T07:52:57;0.35;;;0.22;;
85726;SDS011;76171;45.484;-73.496;2024-02-14T07:55:26;0.20;;;0.20;;
85726;SDS011;76171;45.484;-73.496;2024-02-14T07:57:53;0.20;;;0.20;;
85726;SDS011;76171;45.484;-73.496;2024-02-14T08:00:21;0.32;;;0.32;;
85726;SDS011;76171;45.484;-73.496;2024-02-14T08:02:48;1.65;;;0.30;;
85726;SDS011;76171;45.484;-73.496;2024-02-14T08:05:17;0.20;;;0.20;;
85726;SDS011;76171;45.484;-73.496;2024-02-14T08:07:46;0.30;;;0.30;;
85726;SDS011;76171;45.484;-73.496;2024-02-14T08:10:12;0.30;;;0.30;;
85726;SDS011;76171;45.484;-73.496;2024-02-14T08:12:45;0.25;;;0.25;;
85726;SDS011;76171;45.484;-73.496;2024-02-14T08:15:12;0.30;;;0.30;;
85726;SDS011;76171;45.484;-73.496;2024-02-14T08:17:41;0.20;;;0.20;;
85726;SDS011;76171;45.484;-73.496;2024-02-14T08:20:08;0.20;;;0.20;;
85726;SDS011;76171;45.484;-73.496;2024-02-14T08:22:37;0.20;;;0.20;;
85726;SDS011;76171;45.484;-73.496;2024-02-14T08:25:04;0.30;;;0.30;;
85726;SDS011;76171;45.484;-73.496;2024-02-14T08:27:34;0.20;;;0.20;;
85726;SDS011;76171;45.484;-73.496;2024-02-14T08:30:00;0.30;;;0.30;;
85726;SDS011;76171;45.484;-73.496;2024-02-14T08:32:26;0.30;;;0.22;;
85726;SDS011;76171;45.484;-73.496;2024-02-14T08:34:53;0.30;;;0.30;;
85726;SDS011;76171;45.484;-73.496;2024-02-14T08:37:21;0.52;;;0.43;;
85726;SDS011;76171;45.484;-73.496;2024-02-14T08:39:50;0.50;;;0.50;;
85726;SDS011;76171;45.484;-73.496;2024-02-14T08:42:19;0.35;;;0.35;;
85726;SDS011;76171;45.484;-73.496;2024-02-14T08:44:45;0.30;;;0.30;;
85726;SDS011;76171;45.484;-73.496;2024-02-14T08:47:11;1.80;;;0.50;;
85726;SDS011;76171;45.484;-73.496;2024-02-14T08:49:42;0.28;;;0.28;;
85726;SDS011;76171;45.484;-73.496;2024-02-14T08:52:08;1.10;;;0.63;;
85726;SDS011;76171;45.484;-73.496;2024-02-14T08:54:40;0.20;;;0.20;;
85726;SDS011;76171;45.484;-73.496;2024-02-14T08:57:13;0.40;;;0.40;;
85726;SDS011;76171;45.484;-73.496;2024-02-14T08:59:39;0.38;;;0.30;;
85726;SDS011;76171;45.484;-73.496;2024-02-14T09:02:08;0.45;;;0.45;;
85726;SDS011;76171;45.484;-73.496;2024-02-14T09:04:42;0.30;;;0.30;;
85726;SDS011;76171;45.484;-73.496;2024-02-14T09:07:09;0.47;;;0.47;;
85726;SDS011;76171;45.484;-73.496;2024-02-14T09:09:36;0.30;;;0.30;;
85726;SDS011;76171;45.484;-73.496;2024-02-14T09:12:03;0.20;;;0.20;;
85726;SDS011;76171;45.484;-73.496;2024-02-14T09:14:30;0.45;;;0.40;;
85726;SDS011;76171;45.484;-73.496;2024-02-14T09:16:59;0.22;;;0.22;;
85726;SDS011;76171;45.484;-73.496;2024-02-14T09:19:27;0.20;;;0.20;;
85726;SDS011;76171;45.484;-73.496;2024-02-14T09:21:53;0.30;;;0.30;;
85726;SDS011;76171;45.484;-73.496;2024-02-14T09:24:19;0.30;;;0.30;;
85726;SDS011;76171;45.484;-73.496;2024-02-14T09:26:48;0.30;;;0.30;;
85726;SDS011;76171;45.484;-73.496;2024-02-14T09:29:14;0.40;;;0.40;;
85726;SDS011;76171;45.484;-73.496;2024-02-14T09:32:01;0.60;;;0.50;;
85726;SDS011;76171;45.484;-73.496;2024-02-14T09:34:32;0.20;;;0.20;;
85726;SDS011;76171;45.484;-73.496;2024-02-14T09:36:59;0.40;;;0.40;;
85726;SDS011;76171;45.484;-73.496;2024-02-14T09:39:25;0.30;;;0.30;;
85726;SDS011;76171;45.484;-73.496;2024-02-14T09:41:52;0.50;;;0.50;;
85726;SDS011;76171;45.484;-73.496;2024-02-14T09:44:20;0.60;;;0.60;;
85726;SDS011;76171;45.484;-73.496;2024-02-14T09:46:47;0.25;;;0.25;;
85726;SDS011;76171;45.484;-73.496;2024-02-14T09:49:14;0.20;;;0.20;;
85726;SDS011;76171;45.484;-73.496;2024-02-14T09:51:43;0.28;;;0.28;;
85726;SDS011;76171;45.484;-73.496;2024-02-14T09:54:13;0.20;;;0.20;;
85726;SDS011;76171;45.484;-73.496;2024-02-14T09:56:47;0.30;;;0.30;;
85726;SDS011;76171;45.484;-73.496;2024-02-14T09:59:20;0.30;;;0.30;;
85726;SDS011;76171;45.484;-73.496;2024-02-14T10:01:50;0.22;;;0.22;;
85726;SDS011;76171;45.484;-73.496;2024-02-14T10:05:02;0.20;;;0.20;;
85726;SDS011;76171;45.484;-73.496;2024-02-14T10:07:06;0.28;;;0.28;;
85726;SDS011;76171;45.484;-73.496;2024-02-14T10:09:39;2.33;;;0.82;;
85726;SDS011;76171;45.484;-73.496;2024-02-14T10:12:11;0.30;;;0.30;;
85726;SDS011;76171;45.484;-73.496;2024-02-14T10:14:38;0.20;;;0.20;;
85726;SDS011;76171;45.484;-73.496;2024-02-14T10:17:04;0.30;;;0.30;;
85726;SDS011;76171;45.484;-73.496;2024-02-14T10:19:30;0.40;;;0.40;;
85726;SDS011;76171;45.484;-73.496;2024-02-14T10:21:58;0.22;;;0.22;;
85726;SDS011;76171;45.484;-73.496;2024-02-14T10:24:28;0.30;;;0.30;;
85726;SDS011;76171;45.484;-73.496;2024-02-14T10:26:56;0.98;;;0.30;;
85726;SDS011;76171;45.484;-73.496;2024-02-14T10:29:25;1.65;;;1.27;;
85726;SDS011;76171;45.484;-73.496;2024-02-14T10:31:52;0.40;;;0.40;;
85726;SDS011;76171;45.484;-73.496;2024-02-14T10:34:18;0.70;;;0.70;;
85726;SDS011;76171;45.484;-73.496;2024-02-14T10:36:47;0.50;;;0.50;;
85726;SDS011;76171;45.484;-73.496;2024-02-14T10:39:37;0.43;;;0.35;;
85726;SDS011;76171;45.484;-73.496;2024-02-14T10:42:05;0.30;;;0.30;;
85726;SDS011;76171;45.484;-73.496;2024-02-14T10:44:37;0.40;;;0.40;;
85726;SDS011;76171;45.484;-73.496;2024-02-14T10:47:10;0.30;;;0.30;;
85726;SDS011;76171;45.484;-73.496;2024-02-14T10:49:39;0.25;;;0.25;;
85726;SDS011;76171;45.484;-73.496;2024-02-14T10:52:07;1.13;;;0.50;;
85726;SDS011;76171;45.484;-73.496;2024-02-14T10:54:35;0.40;;;0.40;;
85726;SDS011;76171;45.484;-73.496;2024-02-14T10:57:04;0.40;;;0.40;;
85726;SDS011;76171;45.484;-73.496;2024-02-14T10:59:33;0.63;;;0.55;;
85726;SDS011;76171;45.484;-73.496;2024-02-14T11:02:01;0.30;;;0.30;;
85726;SDS011;76171;45.484;-73.496;2024-02-14T11:04:33;0.47;;;0.40;;
85726;SDS011;76171;45.484;-73.496;2024-02-14T11:06:59;0.45;;;0.25;;
85726;SDS011;76171;45.484;-73.496;2024-02-14T11:09:31;0.32;;;0.32;;
85726;SDS011;76171;45.484;-73.496;2024-02-14T11:12:01;6.13;;;0.30;;
85726;SDS011;76171;45.484;-73.496;2024-02-14T11:14:34;0.20;;;0.20;;
85726;SDS011;76171;45.484;-73.496;2024-02-14T11:17:16;0.50;;;0.40;;
85726;SDS011;76171;45.484;-73.496;2024-02-14T11:19:51;0.30;;;0.30;;
85726;SDS011;76171;45.484;-73.496;2024-02-14T11:22:17;0.22;;;0.22;;
85726;SDS011;76171;45.484;-73.496;2024-02-14T11:24:47;0.30;;;0.30;;
85726;SDS011;76171;45.484;-73.496;2024-02-14T11:27:14;0.32;;;0.28;;
85726;SDS011;76171;45.484;-73.496;2024-02-14T11:29:40;0.28;;;0.28;;
85726;SDS011;76171;45.484;-73.496;2024-02-14T11:32:16;0.22;;;0.22;;
85726;SDS011;76171;45.484;-73.496;2024-02-14T11:34:43;0.60;;;0.40;;
85726;SDS011;76171;45.484;-73.496;2024-02-14T11:37:09;1.05;;;0.52;;
85726;SDS011;76171;45.484;-73.496;2024-02-14T11:39:40;0.73;;;0.73;;
85726;SDS011;76171;45.484;-73.496;2024-02-14T11:42:09;0.15;;;0.15;;
85726;SDS011;76171;45.484;-73.496;2024-02-14T11:44:39;0.45;;;0.32;;
85726;SDS011;76171;45.484;-73.496;2024-02-14T11:47:09;0.30;;;0.30;;
85726;SDS011;76171;45.484;-73.496;2024-02-14T11:49:37;0.82;;;0.57;;
85726;SDS011;76171;45.484;-73.496;2024-02-14T11:52:06;0.20;;;0.20;;
85726;SDS011;76171;45.484;-73.496;2024-02-14T11:54:35;4.10;;;0.45;;
85726;SDS011;76171;45.484;-73.496;2024-02-14T11:57:01;0.30;;;0.30;;
85726;SDS011;76171;45.484;-73.496;2024-02-14T11:59:28;0.20;;;0.20;;
85726;SDS011;76171;45.484;-73.496;2024-02-14T12:01:53;0.43;;;0.35;;
85726;SDS011;76171;45.484;-73.496;2024-02-14T12:04:23;0.25;;;0.25;;
85726;SDS011;76171;45.484;-73.496;2024-02-14T12:06:59;0.30;;;0.30;;
85726;SDS011;76171;45.484;-73.496;2024-02-14T12:09:25;0.65;;;0.50;;
85726;SDS011;76171;45.484;-73.496;2024-02-14T12:11:57;0.40;;;0.30;;
85726;SDS011;76171;45.484;-73.496;2024-02-14T12:14:23;0.52;;;0.40;;
85726;SDS011;76171;45.484;-73.496;2024-02-14T12:16:56;0.28;;;0.28;;
85726;SDS011;76171;45.484;-73.496;2024-02-14T12:19:27;0.30;;;0.30;;
85726;SDS011;76171;45.484;-73.496;2024-02-14T12:21:54;0.38;;;0.38;;
85726;SDS011;76171;45.484;-73.496;2024-02-14T12:24:24;0.60;;;0.57;;
85726;SDS011;76171;45.484;-73.496;2024-02-14T12:26:54;0.30;;;0.30;;
85726;SDS011;76171;45.484;-73.496;2024-02-14T12:29:23;0.40;;;0.40;;
85726;SDS011;76171;45.484;-73.496;2024-02-14T12:31:49;0.20;;;0.20;;
85726;SDS011;76171;45.484;-73.496;2024-02-14T12:34:15;0.20;;;0.20;;
85726;SDS011;76171;45.484;-73.496;2024-02-14T12:36:43;0.30;;;0.30;;
85726;SDS011;76171;45.484;-73.496;2024-02-14T12:39:09;0.38;;;0.28;;
85726;SDS011;76171;45.484;-73.496;2024-02-14T12:41:37;0.28;;;0.20;;
85726;SDS011;76171;45.484;-73.496;2024-02-14T12:44:05;0.30;;;0.30;;
85726;SDS011;76171;45.484;-73.496;2024-02-14T12:46:32;0.30;;;0.30;;
85726;SDS011;76171;45.484;-73.496;2024-02-14T12:48:59;1.75;;;0.63;;
85726;SDS011;76171;45.484;-73.496;2024-02-14T12:51:25;1.75;;;0.30;;
85726;SDS011;76171;45.484;-73.496;2024-02-14T12:53:53;0.45;;;0.45;;
85726;SDS011;76171;45.484;-73.496;2024-02-14T12:56:19;0.10;;;0.10;;
85726;SDS011;76171;45.484;-73.496;2024-02-14T12:58:45;0.30;;;0.30;;
85726;SDS011;76171;45.484;-73.496;2024-02-14T13:01:12;0.30;;;0.30;;
85726;SDS011;76171;45.484;-73.496;2024-02-14T13:03:40;0.30;;;0.30;;
85726;SDS011;76171;45.484;-73.496;2024-02-14T13:06:06;0.50;;;0.50;;
85726;SDS011;76171;45.484;-73.496;2024-02-14T13:08:32;0.10;;;0.10;;
85726;SDS011;76171;45.484;-73.496;2024-02-14T13:11:01;0.40;;;0.40;;
85726;SDS011;76171;45.484;-73.496;2024-02-14T13:13:27;0.20;;;0.20;;
85726;SDS011;76171;45.484;-73.496;2024-02-14T13:15:55;0.80;;;0.40;;
85726;SDS011;76171;45.484;-73.496;2024-02-14T13:18:26;0.20;;;0.20;;
85726;SDS011;76171;45.484;-73.496;2024-02-14T13:20:55;0.30;;;0.28;;
85726;SDS011;76171;45.484;-73.496;2024-02-14T13:23:27;0.22;;;0.22;;
85726;SDS011;76171;45.484;-73.496;2024-02-14T13:25:56;1.17;;;0.40;;
85726;SDS011;76171;45.484;-73.496;2024-02-14T13:28:22;0.22;;;0.22;;
85726;SDS011;76171;45.484;-73.496;2024-02-14T13:30:48;0.30;;;0.30;;
85726;SDS011;76171;45.484;-73.496;2024-02-14T13:33:14;0.65;;;0.65;;
85726;SDS011;76171;45.484;-73.496;2024-02-14T13:35:40;0.30;;;0.30;;
85726;SDS011;76171;45.484;-73.496;2024-02-14T13:38:09;0.45;;;0.40;;
85726;SDS011;76171;45.484;-73.496;2024-02-14T13:40:35;2.28;;;0.43;;
85726;SDS011;76171;45.484;-73.496;2024-02-14T13:43:01;0.32;;;0.32;;
85726;SDS011;76171;45.484;-73.496;2024-02-14T13:45:30;0.30;;;0.30;;
85726;SDS011;76171;45.484;-73.496;2024-02-14T13:48:07;0.93;;;0.70;;
85726;SDS011;76171;45.484;-73.496;2024-02-14T13:50:33;0.20;;;0.20;;
85726;SDS011;76171;45.484;-73.496;2024-02-14T13:52:59;0.40;;;0.40;;
85726;SDS011;76171;45.484;-73.496;2024-02-14T13:55:25;0.60;;;0.60;;
85726;SDS011;76171;45.484;-73.496;2024-02-14T13:57:54;0.20;;;0.20;;
85726;SDS011;76171;45.484;-73.496;2024-02-14T14:00:20;0.28;;;0.28;;
85726;SDS011;76171;45.484;-73.496;2024-02-14T14:02:47;0.20;;;0.20;;
85726;SDS011;76171;45.484;-73.496;2024-02-14T14:05:15;0.38;;;0.38;;
85726;SDS011;76171;45.484;-73.496;2024-02-14T14:07:46;0.30;;;0.30;;
85726;SDS011;76171;45.484;-73.496;2024-02-14T14:10:25;0.40;;;0.30;;
85726;SDS011;76171;45.484;-73.496;2024-02-14T14:12:54;0.20;;;0.20;;
85726;SDS011;76171;45.484;-73.496;2024-02-14T14:15:20;0.50;;;0.50;;
85726;SDS011;76171;45.484;-73.496;2024-02-14T14:20:29;0.50;;;0.40;;
85726;SDS011;76171;45.484;-73.496;2024-02-14T14:22:55;0.50;;;0.50;;
85726;SDS011;76171;45.484;-73.496;2024-02-14T14:25:24;1.10;;;0.63;;
85726;SDS011;76171;45.484;-73.496;2024-02-14T14:27:53;0.22;;;0.22;;
85726;SDS011;76171;45.484;-73.496;2024-02-14T14:30:20;1.25;;;0.47;;
85726;SDS011;76171;45.484;-73.496;2024-02-14T14:32:46;1.05;;;0.40;;
85726;SDS011;76171;45.484;-73.496;2024-02-14T14:35:12;1.23;;;0.43;;
85726;SDS011;76171;45.484;-73.496;2024-02-14T14:37:39;0.52;;;0.47;;
85726;SDS011;76171;45.484;-73.496;2024-02-14T14:40:05;1.27;;;0.50;;
85726;SDS011;76171;45.484;-73.496;2024-02-14T14:42:33;0.82;;;0.40;;
85726;SDS011;76171;45.484;-73.496;2024-02-14T14:44:59;0.40;;;0.30;;
85726;SDS011;76171;45.484;-73.496;2024-02-14T14:47:31;0.65;;;0.35;;
85726;SDS011;76171;45.484;-73.496;2024-02-14T14:49:57;0.40;;;0.40;;
85726;SDS011;76171;45.484;-73.496;2024-02-14T14:52:24;0.93;;;0.60;;